sensor_id;sensor_type;location;lat;lon;timestamp;pressure;altitude;pressure_sealevel;temperature;humidity
59971;BME280;45825;45.434;9.116;2023-02-16T00:00:49;101590.44;;;9.17;61.36
59971;BME280;45825;45.434;9.116;2023-02-16T00:03:20;101587.16;;;9.08;61.71
59971;BME280;45825;45.434;9.116;2023-02-16T00:05:46;101585.19;;;9.17;61.23
59971;BME280;45825;45.434;9.116;2023-02-16T00:08:12;101589.50;;;9.19;61.22
59971;BME280;45825;45.434;9.116;2023-02-16T00:10:38;101583.25;;;9.23;61.66
59971;BME280;45825;45.434;9.116;2023-02-16T00:13:33;101576.13;;;9.27;61.17
59971;BME280;45825;45.434;9.116;2023-02-16T00:16:14;101582.16;;;9.31;61.07
59971;BME280;45825;45.434;9.116;2023-02-16T00:18:39;101572.50;;;9.31;60.72
59971;BME280;45825;45.434;9.116;2023-02-16T00:21:05;101575.19;;;9.30;60.81
59971;BME280;45825;45.434;9.116;2023-02-16T00:23:30;101578.00;;;9.23;60.71
59971;BME280;45825;45.434;9.116;2023-02-16T00:25:55;101565.06;;;9.17;61.35
59971;BME280;45825;45.434;9.116;2023-02-16T00:28:20;101564.44;;;9.07;61.59
59971;BME280;45825;45.434;9.116;2023-02-16T00:30:46;101570.69;;;9.03;61.34
59971;BME280;45825;45.434;9.116;2023-02-16T00:33:16;101568.47;;;8.88;62.44
59971;BME280;45825;45.434;9.116;2023-02-16T00:35:42;101566.56;;;8.94;62.07
59971;BME280;45825;45.434;9.116;2023-02-16T00:38:09;101569.22;;;8.93;62.28
59971;BME280;45825;45.434;9.116;2023-02-16T00:40:35;101568.44;;;8.89;62.51
59971;BME280;45825;45.434;9.116;2023-02-16T00:43:01;101566.47;;;8.98;62.35
59971;BME280;45825;45.434;9.116;2023-02-16T00:45:26;101556.00;;;8.96;62.17
59971;BME280;45825;45.434;9.116;2023-02-16T00:47:52;101555.31;;;8.89;62.51
59971;BME280;45825;45.434;9.116;2023-02-16T00:52:44;101561.69;;;8.80;62.55
59971;BME280;45825;45.434;9.116;2023-02-16T00:55:19;101565.16;;;8.81;62.40
59971;BME280;45825;45.434;9.116;2023-02-16T00:57:51;101563.50;;;8.78;62.81
59971;BME280;45825;45.434;9.116;2023-02-16T01:00:23;101570.47;;;8.79;62.83
59971;BME280;45825;45.434;9.116;2023-02-16T01:02:51;101557.41;;;8.76;62.13
59971;BME280;45825;45.434;9.116;2023-02-16T01:05:18;101563.53;;;8.77;62.96
59971;BME280;45825;45.434;9.116;2023-02-16T01:07:43;101571.53;;;8.72;62.95
59971;BME280;45825;45.434;9.116;2023-02-16T01:10:28;101567.09;;;8.74;62.60
59971;BME280;45825;45.434;9.116;2023-02-16T01:13:13;101566.53;;;8.63;63.45
59971;BME280;45825;45.434;9.116;2023-02-16T01:15:40;101570.97;;;8.61;63.34
59971;BME280;45825;45.434;9.116;2023-02-16T01:18:06;101570.06;;;8.62;63.56
59971;BME280;45825;45.434;9.116;2023-02-16T01:20:32;101555.00;;;8.69;62.73
59971;BME280;45825;45.434;9.116;2023-02-16T01:22:59;101556.94;;;8.62;63.26
59971;BME280;45825;45.434;9.116;2023-02-16T01:25:24;101557.97;;;8.56;63.24
59971;BME280;45825;45.434;9.116;2023-02-16T01:27:49;101564.03;;;8.58;63.57
59971;BME280;45825;45.434;9.116;2023-02-16T01:32:43;101560.38;;;8.64;63.37
59971;BME280;45825;45.434;9.116;2023-02-16T01:35:17;101558.00;;;8.55;63.10
59971;BME280;45825;45.434;9.116;2023-02-16T01:37:43;101556.13;;;8.60;62.99
59971;BME280;45825;45.434;9.116;2023-02-16T01:43:09;101556.06;;;8.61;63.60
59971;BME280;45825;45.434;9.116;2023-02-16T01:45:40;101554.47;;;8.56;63.34
59971;BME280;45825;45.434;9.116;2023-02-16T01:48:20;101561.47;;;8.57;63.76
59971;BME280;45825;45.434;9.116;2023-02-16T01:50:58;101554.53;;;8.54;63.67
59971;BME280;45825;45.434;9.116;2023-02-16T01:53:34;101556.25;;;8.53;63.76
59971;BME280;45825;45.434;9.116;2023-02-16T01:56:14;101557.22;;;8.51;64.66
59971;BME280;45825;45.434;9.116;2023-02-16T01:58:45;101549.38;;;8.48;63.98
59971;BME280;45825;45.434;9.116;2023-02-16T02:01:38;101551.09;;;8.50;63.96
59971;BME280;45825;45.434;9.116;2023-02-16T02:04:18;101546.84;;;8.45;63.86
59971;BME280;45825;45.434;9.116;2023-02-16T02:07:03;101541.69;;;8.42;64.28
59971;BME280;45825;45.434;9.116;2023-02-16T02:09:38;101535.09;;;8.27;64.77
59971;BME280;45825;45.434;9.116;2023-02-16T02:12:19;101525.84;;;8.11;64.83
59971;BME280;45825;45.434;9.116;2023-02-16T02:14:47;101534.44;;;8.17;64.44
59971;BME280;45825;45.434;9.116;2023-02-16T02:17:16;101528.28;;;8.18;64.58
59971;BME280;45825;45.434;9.116;2023-02-16T02:20:10;101529.16;;;8.18;64.72
59971;BME280;45825;45.434;9.116;2023-02-16T02:23:20;101504.22;;;8.02;64.93
59971;BME280;45825;45.434;9.116;2023-02-16T02:31:12;101518.22;;;8.01;65.38
59971;BME280;45825;45.434;9.116;2023-02-16T02:33:56;101522.53;;;8.03;65.13
59971;BME280;45825;45.434;9.116;2023-02-16T02:36:44;101515.44;;;8.08;65.02
59971;BME280;45825;45.434;9.116;2023-02-16T02:41:51;101516.50;;;8.00;65.41
59971;BME280;45825;45.434;9.116;2023-02-16T02:44:30;101525.25;;;8.00;65.56
59971;BME280;45825;45.434;9.116;2023-02-16T02:46:57;101519.22;;;7.96;65.38
59971;BME280;45825;45.434;9.116;2023-02-16T02:49:23;101513.28;;;7.88;65.82
59971;BME280;45825;45.434;9.116;2023-02-16T02:51:48;101522.94;;;7.88;65.53
59971;BME280;45825;45.434;9.116;2023-02-16T02:54:33;101517.91;;;7.78;66.31
59971;BME280;45825;45.434;9.116;2023-02-16T02:57:42;101520.53;;;7.78;66.36
59971;BME280;45825;45.434;9.116;2023-02-16T03:00:29;101527.47;;;7.79;66.33
59971;BME280;45825;45.434;9.116;2023-02-16T03:03:34;101525.69;;;7.81;66.32
59971;BME280;45825;45.434;9.116;2023-02-16T03:06:06;101524.16;;;7.73;66.48
59971;BME280;45825;45.434;9.116;2023-02-16T03:08:36;101519.22;;;7.59;66.91
59971;BME280;45825;45.434;9.116;2023-02-16T03:11:07;101534.03;;;7.60;67.05
59971;BME280;45825;45.434;9.116;2023-02-16T03:14:20;101526.44;;;7.49;67.21
59971;BME280;45825;45.434;9.116;2023-02-16T03:16:52;101530.69;;;7.54;67.26
59971;BME280;45825;45.434;9.116;2023-02-16T03:19:39;101523.75;;;7.52;67.42
59971;BME280;45825;45.434;9.116;2023-02-16T03:22:25;101518.50;;;7.52;67.39
59971;BME280;45825;45.434;9.116;2023-02-16T03:25:09;101524.75;;;7.46;67.72
59971;BME280;45825;45.434;9.116;2023-02-16T03:27:54;101521.41;;;7.39;67.86
59971;BME280;45825;45.434;9.116;2023-02-16T03:30:40;101523.06;;;7.42;67.57
59971;BME280;45825;45.434;9.116;2023-02-16T03:33:07;101523.13;;;7.40;67.71
59971;BME280;45825;45.434;9.116;2023-02-16T03:35:33;101516.91;;;7.45;67.38
59971;BME280;45825;45.434;9.116;2023-02-16T03:37:59;101520.59;;;7.36;67.49
59971;BME280;45825;45.434;9.116;2023-02-16T03:40:25;101517.91;;;7.39;67.22
59971;BME280;45825;45.434;9.116;2023-02-16T03:42:54;101517.97;;;7.36;67.39
59971;BME280;45825;45.434;9.116;2023-02-16T03:45:21;101517.78;;;7.45;67.07
59971;BME280;45825;45.434;9.116;2023-02-16T03:47:46;101516.00;;;7.47;66.81
59971;BME280;45825;45.434;9.116;2023-02-16T03:50:12;101520.59;;;7.36;67.21
59971;BME280;45825;45.434;9.116;2023-02-16T03:52:37;101518.97;;;7.30;67.19
59971;BME280;45825;45.434;9.116;2023-02-16T03:55:03;101514.63;;;7.29;67.18
59971;BME280;45825;45.434;9.116;2023-02-16T03:57:28;101519.06;;;7.27;67.16
59971;BME280;45825;45.434;9.116;2023-02-16T03:59:53;101521.72;;;7.24;67.34
59971;BME280;45825;45.434;9.116;2023-02-16T04:02:19;101517.44;;;7.21;66.87
59971;BME280;45825;45.434;9.116;2023-02-16T04:04:45;101517.31;;;7.26;66.86
59971;BME280;45825;45.434;9.116;2023-02-16T04:07:11;101519.81;;;7.32;66.90
59971;BME280;45825;45.434;9.116;2023-02-16T04:09:36;101518.09;;;7.30;66.41
59971;BME280;45825;45.434;9.116;2023-02-16T04:12:02;101519.16;;;7.21;66.55
59971;BME280;45825;45.434;9.116;2023-02-16T04:14:46;101520.88;;;7.23;66.89
59971;BME280;45825;45.434;9.116;2023-02-16T04:17:11;101512.25;;;7.18;66.86
59971;BME280;45825;45.434;9.116;2023-02-16T04:19:36;101520.16;;;7.17;66.84
59971;BME280;45825;45.434;9.116;2023-02-16T04:22:02;101520.25;;;7.10;67.22
59971;BME280;45825;45.434;9.116;2023-02-16T04:24:27;101519.91;;;7.26;66.72
59971;BME280;45825;45.434;9.116;2023-02-16T04:26:52;101521.59;;;7.30;66.64
59971;BME280;45825;45.434;9.116;2023-02-16T04:29:18;101518.97;;;7.32;66.52
59971;BME280;45825;45.434;9.116;2023-02-16T04:31:43;101521.72;;;7.24;67.04
59971;BME280;45825;45.434;9.116;2023-02-16T04:34:08;101512.94;;;7.26;66.66
59971;BME280;45825;45.434;9.116;2023-02-16T04:36:34;101519.19;;;7.19;66.71
59971;BME280;45825;45.434;9.116;2023-02-16T04:38:59;101524.34;;;7.24;66.40
59971;BME280;45825;45.434;9.116;2023-02-16T04:41:24;101519.16;;;7.22;66.66
59971;BME280;45825;45.434;9.116;2023-02-16T04:43:51;101512.03;;;7.29;66.71
59971;BME280;45825;45.434;9.116;2023-02-16T04:46:16;101518.09;;;7.30;66.52
59971;BME280;45825;45.434;9.116;2023-02-16T04:48:43;101518.09;;;7.30;66.29
59971;BME280;45825;45.434;9.116;2023-02-16T04:51:09;101516.53;;;7.22;66.09
59971;BME280;45825;45.434;9.116;2023-02-16T04:53:34;101514.91;;;7.17;66.50
59971;BME280;45825;45.434;9.116;2023-02-16T04:55:59;101505.34;;;7.16;66.15
59971;BME280;45825;45.434;9.116;2023-02-16T04:58:25;101521.03;;;7.16;66.41
59971;BME280;45825;45.434;9.116;2023-02-16T05:00:50;101518.63;;;7.06;66.57
59971;BME280;45825;45.434;9.116;2023-02-16T05:03:15;101523.75;;;7.11;66.98
59971;BME280;45825;45.434;9.116;2023-02-16T05:05:40;101528.22;;;7.06;67.32
59971;BME280;45825;45.434;9.116;2023-02-16T05:08:06;101522.16;;;7.04;66.97
59971;BME280;45825;45.434;9.116;2023-02-16T05:10:31;101521.28;;;7.03;67.13
59971;BME280;45825;45.434;9.116;2023-02-16T05:12:57;101527.28;;;7.08;67.13
59971;BME280;45825;45.434;9.116;2023-02-16T05:15:41;101525.72;;;6.99;67.63
59971;BME280;45825;45.434;9.116;2023-02-16T05:18:06;101520.44;;;7.03;67.59
59971;BME280;45825;45.434;9.116;2023-02-16T05:20:31;101532.63;;;7.04;67.20
59971;BME280;45825;45.434;9.116;2023-02-16T05:23:15;101529.19;;;7.02;67.57
59971;BME280;45825;45.434;9.116;2023-02-16T05:25:41;101525.81;;;6.95;68.18
59971;BME280;45825;45.434;9.116;2023-02-16T05:28:06;101531.88;;;6.97;67.89
59971;BME280;45825;45.434;9.116;2023-02-16T05:30:32;101530.06;;;7.01;67.88
59971;BME280;45825;45.434;9.116;2023-02-16T05:32:57;101529.19;;;7.02;67.71
59971;BME280;45825;45.434;9.116;2023-02-16T05:35:22;101531.53;;;7.14;68.06
59971;BME280;45825;45.434;9.116;2023-02-16T05:37:48;101536.78;;;7.12;67.96
59971;BME280;45825;45.434;9.116;2023-02-16T05:40:13;101536.69;;;7.17;68.43
59971;BME280;45825;45.434;9.116;2023-02-16T05:42:38;101531.63;;;7.09;68.97
59971;BME280;45825;45.434;9.116;2023-02-16T05:45:04;101546.25;;;7.20;68.80
59971;BME280;45825;45.434;9.116;2023-02-16T05:47:29;101540.22;;;7.15;68.82
59971;BME280;45825;45.434;9.116;2023-02-16T05:49:54;101545.53;;;7.11;69.09
59971;BME280;45825;45.434;9.116;2023-02-16T05:52:20;101542.97;;;7.10;68.70
59971;BME280;45825;45.434;9.116;2023-02-16T05:54:45;101543.63;;;7.21;68.43
59971;BME280;45825;45.434;9.116;2023-02-16T05:57:10;101547.06;;;7.23;68.35
59971;BME280;45825;45.434;9.116;2023-02-16T05:59:36;101545.28;;;7.24;68.44
59971;BME280;45825;45.434;9.116;2023-02-16T06:02:01;101539.03;;;7.31;68.07
59971;BME280;45825;45.434;9.116;2023-02-16T06:04:26;101550.50;;;7.24;68.42
59971;BME280;45825;45.434;9.116;2023-02-16T06:06:53;101546.09;;;7.26;68.05
59971;BME280;45825;45.434;9.116;2023-02-16T06:09:18;101553.91;;;7.29;68.13
59971;BME280;45825;45.434;9.116;2023-02-16T06:11:44;101559.16;;;7.29;67.78
59971;BME280;45825;45.434;9.116;2023-02-16T06:14:15;101558.38;;;7.24;68.17
59971;BME280;45825;45.434;9.116;2023-02-16T06:16:42;101561.97;;;7.18;68.22
59971;BME280;45825;45.434;9.116;2023-02-16T06:19:08;101554.84;;;7.25;67.94
59971;BME280;45825;45.434;9.116;2023-02-16T06:21:34;101576.78;;;7.19;68.32
59971;BME280;45825;45.434;9.116;2023-02-16T06:24:00;101577.78;;;7.13;68.69
59971;BME280;45825;45.434;9.116;2023-02-16T06:26:26;101580.34;;;7.17;68.57
59971;BME280;45825;45.434;9.116;2023-02-16T06:28:52;101580.41;;;7.13;68.53
59971;BME280;45825;45.434;9.116;2023-02-16T06:31:18;101588.97;;;7.22;68.50
59971;BME280;45825;45.434;9.116;2023-02-16T06:33:43;101583.72;;;7.23;68.13
59971;BME280;45825;45.434;9.116;2023-02-16T06:36:09;101588.22;;;7.15;68.63
59971;BME280;45825;45.434;9.116;2023-02-16T06:38:35;101583.97;;;7.11;68.80
59971;BME280;45825;45.434;9.116;2023-02-16T06:41:00;101595.09;;;7.21;68.48
59971;BME280;45825;45.434;9.116;2023-02-16T06:43:25;101599.53;;;7.17;68.85
59971;BME280;45825;45.434;9.116;2023-02-16T06:45:51;101604.69;;;7.20;68.94
59971;BME280;45825;45.434;9.116;2023-02-16T06:48:16;101601.13;;;7.24;68.85
59971;BME280;45825;45.434;9.116;2023-02-16T06:50:41;101599.47;;;7.20;69.11
59971;BME280;45825;45.434;9.116;2023-02-16T06:53:07;101597.63;;;7.25;69.67
59971;BME280;45825;45.434;9.116;2023-02-16T06:55:32;101600.97;;;7.32;69.16
59971;BME280;45825;45.434;9.116;2023-02-16T06:58:04;101604.25;;;7.42;68.79
59971;BME280;45825;45.434;9.116;2023-02-16T07:00:30;101611.19;;;7.46;68.73
59971;BME280;45825;45.434;9.116;2023-02-16T07:02:56;101612.06;;;7.45;68.89
59971;BME280;45825;45.434;9.116;2023-02-16T07:05:21;101610.03;;;7.58;67.98
59971;BME280;45825;45.434;9.116;2023-02-16T07:07:46;101613.06;;;7.39;68.54
59971;BME280;45825;45.434;9.116;2023-02-16T07:10:12;101613.00;;;7.43;69.19
59971;BME280;45825;45.434;9.116;2023-02-16T07:12:38;101619.13;;;7.41;69.45
59971;BME280;45825;45.434;9.116;2023-02-16T07:15:04;101616.44;;;7.45;69.49
59971;BME280;45825;45.434;9.116;2023-02-16T07:17:29;101619.84;;;7.50;69.24
59971;BME280;45825;45.434;9.116;2023-02-16T07:19:55;101612.81;;;7.52;70.32
59971;BME280;45825;45.434;9.116;2023-02-16T07:22:20;101614.41;;;7.59;69.39
59971;BME280;45825;45.434;9.116;2023-02-16T07:24:45;101610.78;;;7.65;69.03
59971;BME280;45825;45.434;9.116;2023-02-16T07:27:11;101610.69;;;7.69;69.02
59971;BME280;45825;45.434;9.116;2023-02-16T07:29:36;101615.81;;;7.74;69.11
59971;BME280;45825;45.434;9.116;2023-02-16T07:32:02;101613.88;;;7.82;68.55
59971;BME280;45825;45.434;9.116;2023-02-16T07:34:29;101612.84;;;7.91;68.42
59971;BME280;45825;45.434;9.116;2023-02-16T07:36:55;101607.63;;;7.90;68.40
59971;BME280;45825;45.434;9.116;2023-02-16T07:39:20;101608.41;;;7.93;68.28
59971;BME280;45825;45.434;9.116;2023-02-16T07:41:45;101608.50;;;7.89;68.49
59971;BME280;45825;45.434;9.116;2023-02-16T07:44:11;101617.28;;;7.88;68.90
59971;BME280;45825;45.434;9.116;2023-02-16T07:46:36;101617.06;;;7.97;68.64
59971;BME280;45825;45.434;9.116;2023-02-16T07:49:04;101613.59;;;7.95;69.03
59971;BME280;45825;45.434;9.116;2023-02-16T07:51:30;101616.94;;;8.02;68.97
59971;BME280;45825;45.434;9.116;2023-02-16T07:53:57;101623.66;;;8.14;69.00
59971;BME280;45825;45.434;9.116;2023-02-16T07:56:25;101633.34;;;8.10;69.04
59971;BME280;45825;45.434;9.116;2023-02-16T07:58:51;101635.03;;;8.14;69.37
59971;BME280;45825;45.434;9.116;2023-02-16T08:01:18;101629.00;;;8.10;69.41
59971;BME280;45825;45.434;9.116;2023-02-16T08:03:43;101630.53;;;8.19;69.15
59971;BME280;45825;45.434;9.116;2023-02-16T08:08:50;101637.53;;;8.19;70.17
59971;BME280;45825;45.434;9.116;2023-02-16T08:11:20;101641.72;;;8.26;70.65
59971;BME280;45825;45.434;9.116;2023-02-16T08:13:46;101647.84;;;8.27;70.95
59971;BME280;45825;45.434;9.116;2023-02-16T08:16:23;101642.50;;;8.31;70.34
59971;BME280;45825;45.434;9.116;2023-02-16T08:18:50;101641.69;;;8.28;71.06
59971;BME280;45825;45.434;9.116;2023-02-16T08:21:24;101654.63;;;8.35;71.62
59971;BME280;45825;45.434;9.116;2023-02-16T08:23:53;101653.34;;;8.53;71.33
59971;BME280;45825;45.434;9.116;2023-02-16T08:26:20;101654.00;;;8.63;71.39
59971;BME280;45825;45.434;9.116;2023-02-16T08:28:46;101654.81;;;8.65;72.27
59971;BME280;45825;45.434;9.116;2023-02-16T08:31:16;101652.75;;;8.78;71.92
59971;BME280;45825;45.434;9.116;2023-02-16T08:33:44;101653.38;;;8.87;71.32
59971;BME280;45825;45.434;9.116;2023-02-16T08:38:41;101651.84;;;9.13;71.89
59971;BME280;45825;45.434;9.116;2023-02-16T08:41:07;101652.16;;;9.33;71.46
59971;BME280;45825;45.434;9.116;2023-02-16T08:43:32;101658.81;;;9.45;71.78
59971;BME280;45825;45.434;9.116;2023-02-16T08:45:59;101662.97;;;9.54;72.23
59971;BME280;45825;45.434;9.116;2023-02-16T08:48:24;101659.91;;;9.68;72.85
59971;BME280;45825;45.434;9.116;2023-02-16T08:50:53;101659.38;;;9.87;73.86
59971;BME280;45825;45.434;9.116;2023-02-16T08:53:22;101656.41;;;9.98;72.18
59971;BME280;45825;45.434;9.116;2023-02-16T08:55:54;101657.25;;;9.98;71.98
59971;BME280;45825;45.434;9.116;2023-02-16T08:58:19;101651.63;;;10.11;73.74
59971;BME280;45825;45.434;9.116;2023-02-16T09:00:45;101651.47;;;10.15;73.02
59971;BME280;45825;45.434;9.116;2023-02-16T09:03:11;101652.25;;;10.19;73.58
59971;BME280;45825;45.434;9.116;2023-02-16T09:05:36;101663.38;;;10.27;74.44
59971;BME280;45825;45.434;9.116;2023-02-16T09:08:02;101669.50;;;10.28;75.18
59971;BME280;45825;45.434;9.116;2023-02-16T09:10:27;101662.91;;;10.43;74.26
59971;BME280;45825;45.434;9.116;2023-02-16T09:12:54;101661.06;;;10.46;74.27
59971;BME280;45825;45.434;9.116;2023-02-16T09:15:20;101672.31;;;10.52;74.80
59971;BME280;45825;45.434;9.116;2023-02-16T09:17:46;101668.75;;;10.53;74.83
59971;BME280;45825;45.434;9.116;2023-02-16T09:20:12;101659.88;;;10.55;74.32
59971;BME280;45825;45.434;9.116;2023-02-16T09:22:37;101679.28;;;10.53;75.57
59971;BME280;45825;45.434;9.116;2023-02-16T09:25:03;101668.34;;;10.65;74.71
59971;BME280;45825;45.434;9.116;2023-02-16T09:27:29;101681.06;;;10.79;74.71
59971;BME280;45825;45.434;9.116;2023-02-16T09:29:55;101681.47;;;10.92;73.88
59971;BME280;45825;45.434;9.116;2023-02-16T09:32:27;101681.75;;;10.84;75.03
59971;BME280;45825;45.434;9.116;2023-02-16T09:34:53;101672.72;;;10.92;74.15
59971;BME280;45825;45.434;9.116;2023-02-16T09:37:18;101671.94;;;10.89;74.68
59971;BME280;45825;45.434;9.116;2023-02-16T09:39:43;101675.78;;;11.04;73.75
59971;BME280;45825;45.434;9.116;2023-02-16T09:47:27;101673.22;;;11.03;73.99
59971;BME280;45825;45.434;9.116;2023-02-16T09:49:56;101678.22;;;11.11;73.93
59971;BME280;45825;45.434;9.116;2023-02-16T09:52:43;101668.53;;;11.11;73.42
59971;BME280;45825;45.434;9.116;2023-02-16T09:55:14;101671.09;;;11.38;72.51
59971;BME280;45825;45.434;9.116;2023-02-16T10:08:33;101672.97;;;11.58;71.40
59971;BME280;45825;45.434;9.116;2023-02-16T10:11:24;101674.19;;;11.73;70.60
59971;BME280;45825;45.434;9.116;2023-02-16T10:19:55;101672.22;;;12.02;69.06
59971;BME280;45825;45.434;9.116;2023-02-16T10:27:50;101673.19;;;13.50;63.97
59971;BME280;45825;45.434;9.116;2023-02-16T10:30:36;101684.19;;;13.60;63.06
59971;BME280;45825;45.434;9.116;2023-02-16T10:33:14;101669.59;;;13.30;63.76
59971;BME280;45825;45.434;9.116;2023-02-16T10:35:46;101673.81;;;13.93;62.16
59971;BME280;45825;45.434;9.116;2023-02-16T10:41:23;101666.47;;;14.55;59.69
59971;BME280;45825;45.434;9.116;2023-02-16T10:44:09;101661.56;;;15.17;57.56
59971;BME280;45825;45.434;9.116;2023-02-16T10:46:39;101650.09;;;15.67;55.33
59971;BME280;45825;45.434;9.116;2023-02-16T10:49:09;101654.22;;;16.20;54.05
59971;BME280;45825;45.434;9.116;2023-02-16T10:51:36;101659.63;;;16.50;52.61
59971;BME280;45825;45.434;9.116;2023-02-16T10:54:16;101658.66;;;17.41;49.25
59971;BME280;45825;45.434;9.116;2023-02-16T10:56:56;101649.63;;;18.27;46.18
59971;BME280;45825;45.434;9.116;2023-02-16T11:01:57;101647.34;;;20.74;40.98
59971;BME280;45825;45.434;9.116;2023-02-16T11:09:33;101637.41;;;19.54;42.02
59971;BME280;45825;45.434;9.116;2023-02-16T11:11:59;101629.38;;;22.87;36.22
59971;BME280;45825;45.434;9.116;2023-02-16T11:14:28;101620.00;;;24.14;33.41
59971;BME280;45825;45.434;9.116;2023-02-16T11:17:08;101620.50;;;22.96;34.98
59971;BME280;45825;45.434;9.116;2023-02-16T11:19:40;101611.34;;;24.50;32.98
59971;BME280;45825;45.434;9.116;2023-02-16T11:22:33;101611.81;;;25.77;30.73
59971;BME280;45825;45.434;9.116;2023-02-16T11:28:00;101605.50;;;24.64;31.89
59971;BME280;45825;45.434;9.116;2023-02-16T11:30:36;101597.00;;;24.59;32.15
59971;BME280;45825;45.434;9.116;2023-02-16T11:33:22;101599.44;;;23.74;33.07
59971;BME280;45825;45.434;9.116;2023-02-16T11:35:48;101598.53;;;24.81;31.91
59971;BME280;45825;45.434;9.116;2023-02-16T11:38:33;101569.59;;;26.04;29.99
59971;BME280;45825;45.434;9.116;2023-02-16T11:41:01;101573.50;;;26.09;29.62
59971;BME280;45825;45.434;9.116;2023-02-16T11:43:30;101578.66;;;25.20;29.88
59971;BME280;45825;45.434;9.116;2023-02-16T11:45:59;101578.22;;;25.89;30.03
59971;BME280;45825;45.434;9.116;2023-02-16T11:48:28;101557.66;;;26.86;28.44
59971;BME280;45825;45.434;9.116;2023-02-16T11:53:26;101565.53;;;27.05;27.93
59971;BME280;45825;45.434;9.116;2023-02-16T11:56:24;101562.75;;;24.51;30.51
59971;BME280;45825;45.434;9.116;2023-02-16T11:59:14;101550.22;;;25.64;29.88
59971;BME280;45825;45.434;9.116;2023-02-16T12:02:48;101552.25;;;27.21;28.00
59971;BME280;45825;45.434;9.116;2023-02-16T12:07:36;101540.56;;;29.73;25.28
59971;BME280;45825;45.434;9.116;2023-02-16T12:10:11;101540.31;;;29.36;24.66
59971;BME280;45825;45.434;9.116;2023-02-16T12:15:46;101522.13;;;29.21;24.60
59971;BME280;45825;45.434;9.116;2023-02-16T12:18:30;101529.66;;;29.03;25.30
59971;BME280;45825;45.434;9.116;2023-02-16T12:21:16;101516.13;;;29.81;24.32
59971;BME280;45825;45.434;9.116;2023-02-16T12:23:57;101518.28;;;29.07;25.01
59971;BME280;45825;45.434;9.116;2023-02-16T12:43:52;101497.16;;;25.83;28.36
59971;BME280;45825;45.434;9.116;2023-02-16T12:46:16;101495.78;;;27.94;26.00
59971;BME280;45825;45.434;9.116;2023-02-16T12:48:55;101479.81;;;29.35;23.97
59971;BME280;45825;45.434;9.116;2023-02-16T12:51:46;101473.81;;;30.55;23.09
59971;BME280;45825;45.434;9.116;2023-02-16T12:54:21;101473.41;;;29.98;23.04
59971;BME280;45825;45.434;9.116;2023-02-16T12:56:56;101479.72;;;29.28;23.61
59971;BME280;45825;45.434;9.116;2023-02-16T12:59:33;101476.69;;;27.87;25.53
59971;BME280;45825;45.434;9.116;2023-02-16T13:02:00;101475.47;;;28.14;24.29
59971;BME280;45825;45.434;9.116;2023-02-16T13:04:50;101464.06;;;30.16;23.07
59971;BME280;45825;45.434;9.116;2023-02-16T13:07:27;101462.78;;;31.81;21.51
59971;BME280;45825;45.434;9.116;2023-02-16T13:12:39;101463.13;;;28.12;25.13
59971;BME280;45825;45.434;9.116;2023-02-16T13:15:14;101455.00;;;26.26;27.22
59971;BME280;45825;45.434;9.116;2023-02-16T13:17:48;101450.16;;;29.19;24.46
59971;BME280;45825;45.434;9.116;2023-02-16T13:20:20;101436.13;;;29.77;23.47
59971;BME280;45825;45.434;9.116;2023-02-16T13:31:28;101424.47;;;29.76;23.05
59971;BME280;45825;45.434;9.116;2023-02-16T13:36:53;101414.09;;;29.95;22.42
59971;BME280;45825;45.434;9.116;2023-02-16T13:42:32;101401.78;;;31.18;21.89
59971;BME280;45825;45.434;9.116;2023-02-16T13:45:10;101407.66;;;28.96;24.10
59971;BME280;45825;45.434;9.116;2023-02-16T13:47:38;101398.19;;;31.11;21.88
59971;BME280;45825;45.434;9.116;2023-02-16T13:52:46;101398.84;;;31.13;21.59
59971;BME280;45825;45.434;9.116;2023-02-16T14:00:46;101401.28;;;30.04;23.11
59971;BME280;45825;45.434;9.116;2023-02-16T14:19:53;101388.03;;;30.98;21.90
59971;BME280;45825;45.434;9.116;2023-02-16T14:22:29;101382.25;;;30.64;22.29
59971;BME280;45825;45.434;9.116;2023-02-16T14:24:59;101387.09;;;30.69;21.63
59971;BME280;45825;45.434;9.116;2023-02-16T14:32:57;101380.44;;;30.71;22.10
59971;BME280;45825;45.434;9.116;2023-02-16T14:38:01;101374.13;;;30.86;21.36
59971;BME280;45825;45.434;9.116;2023-02-16T14:43:26;101376.09;;;29.80;22.25
59971;BME280;45825;45.434;9.116;2023-02-16T14:59:58;101385.16;;;20.64;34.53
59971;BME280;45825;45.434;9.116;2023-02-16T15:04:55;101389.34;;;19.29;37.57
59971;BME280;45825;45.434;9.116;2023-02-16T15:07:22;101380.56;;;18.78;38.57
59971;BME280;45825;45.434;9.116;2023-02-16T15:09:53;101390.13;;;18.93;38.39
59971;BME280;45825;45.434;9.116;2023-02-16T15:12:25;101394.16;;;18.62;39.42
59971;BME280;45825;45.434;9.116;2023-02-16T15:14:55;101398.47;;;18.12;40.16
59971;BME280;45825;45.434;9.116;2023-02-16T15:17:43;101395.75;;;17.20;42.62
59971;BME280;45825;45.434;9.116;2023-02-16T15:20:32;101396.59;;;17.21;42.40
59971;BME280;45825;45.434;9.116;2023-02-16T15:23:00;101396.94;;;17.29;42.66
59971;BME280;45825;45.434;9.116;2023-02-16T15:25:27;101395.78;;;17.06;43.19
59971;BME280;45825;45.434;9.116;2023-02-16T15:30:36;101391.53;;;16.46;45.16
59971;BME280;45825;45.434;9.116;2023-02-16T15:33:13;101390.38;;;16.51;44.93
59971;BME280;45825;45.434;9.116;2023-02-16T15:35:53;101399.00;;;16.54;45.40
59971;BME280;45825;45.434;9.116;2023-02-16T15:38:25;101400.31;;;16.47;45.63
59971;BME280;45825;45.434;9.116;2023-02-16T15:40:55;101395.91;;;16.33;46.01
59971;BME280;45825;45.434;9.116;2023-02-16T15:43:34;101411.81;;;16.04;46.75
59971;BME280;45825;45.434;9.116;2023-02-16T15:46:01;101399.75;;;15.98;46.80
59971;BME280;45825;45.434;9.116;2023-02-16T15:48:34;101397.19;;;15.97;47.13
59971;BME280;45825;45.434;9.116;2023-02-16T15:51:10;101403.25;;;15.68;47.93
59971;BME280;45825;45.434;9.116;2023-02-16T15:53:45;101402.50;;;15.66;48.09
59971;BME280;45825;45.434;9.116;2023-02-16T15:56:24;101408.16;;;15.60;48.51